Time;durP1;ratioP1;P1;durP2;ratioP2;P2;SDS_P1;SDS_P2;PMS_P1;PMS_P2;Temp;Humidity;BMP_temperature;BMP_pressure;BME280_temperature;BME280_humidity;BME280_pressure;Samples;Min_cycle;Max_cycle;Signal;HPM_P1;HPM_P2
2022/08/27 00:00:32;;;;;;;4.72;4.32;;;;;;;;;;4179345;28;20109;-62
2022/08/27 00:02:34;;;;;;;5.63;5.13;;;;;;;;;;4187560;28;20037;-62
2022/08/27 00:04:36;;;;;;;5.63;4.90;;;;;;;;;;4198857;28;20090;-62
2022/08/27 00:06:40;;;;;;;5.70;5.20;;;;;;;;;;4195981;28;20083;-62
2022/08/27 00:08:41;;;;;;;5.70;5.20;;;;;;;;;;4187656;28;20104;-62
2022/08/27 00:10:42;;;;;;;6.45;5.13;;;;;;;;;;4198203;28;20438;-62
2022/08/27 00:12:43;;;;;;;5.72;5.13;;;;;;;;;;4198635;28;20094;-62
2022/08/27 00:14:44;;;;;;;6.25;5.25;;;;;;;;;;4198716;28;20082;-61
2022/08/27 00:16:45;;;;;;;7.30;5.07;;;;;;;;;;4188029;28;20409;-61
2022/08/27 00:18:46;;;;;;;4.93;4.43;;;;;;;;;;4206067;28;20045;-62
2022/08/27 00:20:47;;;;;;;5.80;4.60;;;;;;;;;;4196605;28;20044;-61
2022/08/27 00:22:48;;;;;;;5.28;4.78;;;;;;;;;;4182138;28;20396;-63
2022/08/27 00:24:49;;;;;;;8.73;5.38;;;;;;;;;;4200106;28;20048;-62
2022/08/27 00:26:52;;;;;;;8.55;5.25;;;;;;;;;;4205876;28;20545;-62
2022/08/27 00:28:53;;;;;;;5.95;4.78;;;;;;;;;;4208711;28;20044;-62
2022/08/27 00:30:54;;;;;;;5.50;4.95;;;;;;;;;;4189747;28;20033;-62
2022/08/27 00:32:55;;;;;;;5.90;5.20;;;;;;;;;;4191550;28;20036;-62
2022/08/27 00:34:56;;;;;;;5.50;5.00;;;;;;;;;;4182105;28;20476;-62
2022/08/27 00:36:57;;;;;;;7.47;4.95;;;;;;;;;;4198688;28;20036;-62
2022/08/27 00:38:58;;;;;;;7.75;5.47;;;;;;;;;;4198423;28;20078;-61
2022/08/27 00:41:00;;;;;;;6.63;5.40;;;;;;;;;;4198145;28;20052;-62
2022/08/27 00:43:06;;;;;;;10.60;5.53;;;;;;;;;;4212633;28;20044;-62
2022/08/27 00:45:08;;;;;;;8.98;5.63;;;;;;;;;;4201804;28;20101;-61
2022/08/27 00:47:14;;;;;;;10.27;6.32;;;;;;;;;;4198278;28;20028;-62
2022/08/27 00:49:28;;;;;;;9.07;6.10;;;;;;;;;;4197420;28;20025;-61
2022/08/27 00:51:29;;;;;;;10.80;6.18;;;;;;;;;;4185330;28;20071;-61
2022/08/27 00:53:32;;;;;;;10.38;6.25;;;;;;;;;;4209289;28;20040;-62
2022/08/27 00:55:35;;;;;;;12.43;6.28;;;;;;;;;;4203116;28;20039;-62
2022/08/27 00:57:37;;;;;;;10.23;5.93;;;;;;;;;;4215174;28;20454;-62
2022/08/27 00:59:39;;;;;;;9.38;6.30;;;;;;;;;;4215633;28;20460;-62
2022/08/27 01:02:17;;;;;;;10.23;6.22;;;;;;;;;;4214453;28;20505;-62
2022/08/27 01:04:02;;;;;;;7.78;6.35;;;;;;;;;;4214874;28;20081;-62
2022/08/27 01:06:04;;;;;;;9.80;7.05;;;;;;;;;;4214128;28;20414;-61
2022/08/27 01:08:10;;;;;;;8.35;6.10;;;;;;;;;;4198992;28;20425;-61
2022/08/27 01:10:13;;;;;;;9.30;5.82;;;;;;;;;;4199983;28;20533;-61
2022/08/27 01:12:14;;;;;;;10.02;5.82;;;;;;;;;;4197546;28;20434;-61
2022/08/27 01:14:16;;;;;;;14.13;6.93;;;;;;;;;;4197804;28;20032;-62
2022/08/27 01:16:20;;;;;;;11.63;5.93;;;;;;;;;;4197985;28;20102;-62
2022/08/27 01:18:21;;;;;;;11.32;6.10;;;;;;;;;;4197122;28;20053;-61
2022/08/27 01:20:28;;;;;;;14.27;5.60;;;;;;;;;;4197382;28;20039;-62
2022/08/27 01:22:58;;;;;;;12.48;6.45;;;;;;;;;;4197792;28;20056;-61
2022/08/27 01:25:00;;;;;;;13.43;6.38;;;;;;;;;;4179230;28;20045;-61
2022/08/27 01:27:01;;;;;;;11.77;6.30;;;;;;;;;;4181240;28;20029;-61
2022/08/27 01:29:03;;;;;;;14.88;6.20;;;;;;;;;;4181200;28;20455;-62
2022/08/27 01:31:05;;;;;;;12.32;6.15;;;;;;;;;;4181234;28;20441;-62
2022/08/27 01:33:10;;;;;;;17.15;6.28;;;;;;;;;;4180972;28;20452;-63
2022/08/27 01:35:12;;;;;;;14.77;6.25;;;;;;;;;;4181291;28;20082;-61
2022/08/27 01:37:13;;;;;;;11.43;6.65;;;;;;;;;;4181300;28;20032;-63
2022/08/27 01:39:14;;;;;;;12.38;6.25;;;;;;;;;;4199691;28;20066;-61
2022/08/27 01:41:16;;;;;;;9.73;6.00;;;;;;;;;;4187738;28;20570;-62
2022/08/27 01:43:16;;;;;;;10.77;6.43;;;;;;;;;;4180692;28;20531;-62
2022/08/27 01:45:23;;;;;;;12.95;6.10;;;;;;;;;;4180785;28;20037;-61
2022/08/27 01:47:25;;;;;;;10.25;5.63;;;;;;;;;;4193178;28;20105;-61
2022/08/27 01:49:26;;;;;;;13.40;5.57;;;;;;;;;;4197387;28;20033;-63
2022/08/27 01:51:27;;;;;;;13.80;6.25;;;;;;;;;;4198952;28;20029;-62
2022/08/27 01:53:28;;;;;;;11.18;6.53;;;;;;;;;;4194818;28;20029;-61
2022/08/27 01:55:28;;;;;;;13.23;5.53;;;;;;;;;;4185845;28;20483;-61
2022/08/27 01:57:31;;;;;;;10.43;6.75;;;;;;;;;;4193862;28;20102;-61
2022/08/27 01:59:32;;;;;;;11.57;6.13;;;;;;;;;;4189867;28;20028;-62
2022/08/27 02:01:34;;;;;;;11.15;6.45;;;;;;;;;;4207259;28;20087;-60
2022/08/27 02:03:35;;;;;;;18.27;6.20;;;;;;;;;;4211857;28;20036;-61
2022/08/27 02:05:38;;;;;;;16.60;6.10;;;;;;;;;;4199858;28;20029;-60
2022/08/27 02:07:39;;;;;;;17.00;6.32;;;;;;;;;;4210682;28;20036;-61
2022/08/27 02:09:45;;;;;;;13.05;5.78;;;;;;;;;;4198366;28;20066;-61
2022/08/27 02:11:46;;;;;;;17.73;6.50;;;;;;;;;;4208692;28;20373;-60
2022/08/27 02:13:47;;;;;;;16.15;6.25;;;;;;;;;;4209491;28;20045;-61
2022/08/27 02:15:48;;;;;;;12.15;6.75;;;;;;;;;;4185176;28;20036;-60
2022/08/27 02:17:49;;;;;;;14.50;6.47;;;;;;;;;;4180529;28;20064;-60
2022/08/27 02:19:55;;;;;;;12.25;5.93;;;;;;;;;;4180362;28;20094;-60
2022/08/27 02:21:59;;;;;;;15.90;6.65;;;;;;;;;;4200284;28;20036;-60
2022/08/27 02:24:00;;;;;;;14.48;6.40;;;;;;;;;;4207172;28;20101;-60
2022/08/27 02:26:00;;;;;;;18.10;6.10;;;;;;;;;;4202949;28;20907;-59
2022/08/27 02:28:02;;;;;;;12.25;6.07;;;;;;;;;;4197284;28;20033;-60
2022/08/27 02:30:07;;;;;;;15.35;5.95;;;;;;;;;;4196760;28;20067;-60
2022/08/27 02:32:07;;;;;;;11.95;6.25;;;;;;;;;;4193393;28;20105;-61
2022/08/27 02:34:09;;;;;;;14.13;6.57;;;;;;;;;;4185804;28;20025;-61
2022/08/27 02:36:10;;;;;;;12.25;5.57;;;;;;;;;;4180883;28;20033;-62
2022/08/27 02:38:14;;;;;;;12.25;6.25;;;;;;;;;;4178230;28;20037;-61
2022/08/27 02:40:16;;;;;;;14.75;5.63;;;;;;;;;;4179713;28;20079;-62
2022/08/27 02:42:16;;;;;;;13.70;6.00;;;;;;;;;;4186001;28;20113;-61
2022/08/27 02:44:17;;;;;;;9.90;6.10;;;;;;;;;;4196393;28;20024;-61
2022/08/27 02:46:18;;;;;;;9.85;5.90;;;;;;;;;;4195221;28;20047;-60
2022/08/27 02:48:20;;;;;;;7.82;5.45;;;;;;;;;;4179525;28;20032;-61
2022/08/27 02:50:21;;;;;;;13.32;5.93;;;;;;;;;;4186361;28;20029;-60
2022/08/27 02:52:22;;;;;;;9.77;5.93;;;;;;;;;;4190261;28;20480;-61
2022/08/27 02:54:23;;;;;;;7.30;5.65;;;;;;;;;;4195358;28;20059;-61
2022/08/27 02:56:24;;;;;;;10.43;5.40;;;;;;;;;;4205921;28;20028;-60
2022/08/27 02:58:25;;;;;;;9.90;6.05;;;;;;;;;;4196083;28;20409;-61
2022/08/27 03:00:27;;;;;;;6.70;5.63;;;;;;;;;;4196466;28;20040;-61
2022/08/27 03:02:28;;;;;;;9.70;5.78;;;;;;;;;;4200397;28;20044;-60
2022/08/27 03:04:29;;;;;;;14.73;6.38;;;;;;;;;;4204453;28;20025;-60
2022/08/27 03:06:32;;;;;;;8.85;5.45;;;;;;;;;;4186769;28;20392;-60
2022/08/27 03:08:33;;;;;;;8.98;5.53;;;;;;;;;;4197357;28;20438;-60
2022/08/27 03:10:34;;;;;;;8.85;5.50;;;;;;;;;;4196042;28;20037;-60
2022/08/27 03:12:35;;;;;;;10.35;5.53;;;;;;;;;;4196153;28;20050;-59
2022/08/27 03:14:36;;;;;;;8.00;5.88;;;;;;;;;;4196624;28;20032;-60
2022/08/27 03:16:37;;;;;;;8.02;5.78;;;;;;;;;;4185229;28;20029;-60
2022/08/27 03:18:38;;;;;;;11.02;6.15;;;;;;;;;;4181309;28;20080;-61
2022/08/27 03:20:40;;;;;;;7.65;5.75;;;;;;;;;;4183200;28;20033;-60
2022/08/27 03:22:41;;;;;;;8.57;4.95;;;;;;;;;;4182507;28;20376;-59
2022/08/27 03:24:42;;;;;;;9.30;5.45;;;;;;;;;;4183363;28;20032;-60
2022/08/27 03:26:44;;;;;;;7.40;5.68;;;;;;;;;;4182537;28;20041;-60
2022/08/27 03:28:45;;;;;;;6.82;4.95;;;;;;;;;;4190951;28;20106;-60
2022/08/27 03:30:47;;;;;;;7.55;5.85;;;;;;;;;;4181314;28;20033;-60
2022/08/27 03:32:50;;;;;;;8.27;5.30;;;;;;;;;;4187710;28;20479;-60
2022/08/27 03:34:51;;;;;;;5.93;5.07;;;;;;;;;;4184964;28;20458;-60
2022/08/27 03:36:52;;;;;;;7.85;4.90;;;;;;;;;;4187565;28;20024;-60
2022/08/27 03:38:53;;;;;;;20.05;6.20;;;;;;;;;;4199936;28;20491;-60
2022/08/27 03:40:54;;;;;;;11.40;5.68;;;;;;;;;;4208601;28;20036;-60
2022/08/27 03:42:55;;;;;;;10.60;5.45;;;;;;;;;;4199994;28;20074;-60
2022/08/27 03:44:56;;;;;;;12.00;5.47;;;;;;;;;;4200248;28;20009;-61
2022/08/27 03:46:57;;;;;;;12.85;5.50;;;;;;;;;;4211488;28;20032;-61
2022/08/27 03:48:57;;;;;;;7.15;5.40;;;;;;;;;;4200020;28;20020;-61
2022/08/27 03:50:58;;;;;;;8.02;5.30;;;;;;;;;;4199121;28;20101;-60
2022/08/27 03:53:00;;;;;;;8.65;5.82;;;;;;;;;;4198185;28;20032;-60
2022/08/27 03:55:02;;;;;;;10.10;5.50;;;;;;;;;;4187726;28;20102;-61
2022/08/27 03:57:03;;;;;;;16.92;5.97;;;;;;;;;;4191081;28;20087;-60
2022/08/27 03:59:05;;;;;;;8.65;5.55;;;;;;;;;;4193305;28;20461;-60
2022/08/27 04:01:06;;;;;;;7.68;4.85;;;;;;;;;;4209280;28;20345;-60
2022/08/27 04:03:06;;;;;;;11.27;6.10;;;;;;;;;;4202283;28;20094;-60
2022/08/27 04:05:11;;;;;;;10.02;5.30;;;;;;;;;;4215937;28;20471;-60
2022/08/27 04:07:13;;;;;;;8.20;5.45;;;;;;;;;;4215673;28;20032;-60
2022/08/27 04:09:14;;;;;;;9.93;5.68;;;;;;;;;;4215475;28;20028;-60
2022/08/27 04:11:14;;;;;;;8.32;5.40;;;;;;;;;;4214195;28;20118;-61
2022/08/27 04:13:16;;;;;;;9.85;5.43;;;;;;;;;;4198082;28;20479;-60
2022/08/27 04:15:17;;;;;;;8.07;5.72;;;;;;;;;;4182228;28;20040;-60
2022/08/27 04:17:20;;;;;;;6.78;5.35;;;;;;;;;;4182561;28;20029;-60
2022/08/27 04:19:21;;;;;;;7.10;5.80;;;;;;;;;;4182544;28;20538;-60
2022/08/27 04:21:22;;;;;;;7.88;5.40;;;;;;;;;;4181885;28;20049;-60
2022/08/27 04:23:23;;;;;;;9.85;5.03;;;;;;;;;;4198248;28;20046;-59
2022/08/27 04:25:27;;;;;;;7.03;5.00;;;;;;;;;;4198780;28;20033;-61
2022/08/27 04:27:28;;;;;;;9.03;5.40;;;;;;;;;;4196973;28;20090;-61
2022/08/27 04:29:28;;;;;;;8.18;4.97;;;;;;;;;;4198356;28;20041;-60
2022/08/27 04:31:29;;;;;;;6.50;5.10;;;;;;;;;;4186260;28;20063;-61
2022/08/27 04:33:33;;;;;;;6.03;4.95;;;;;;;;;;4182193;28;20036;-60
2022/08/27 04:35:34;;;;;;;5.97;4.82;;;;;;;;;;4181910;28;20314;-60
2022/08/27 04:37:35;;;;;;;7.95;5.47;;;;;;;;;;4182377;28;20071;-60
2022/08/27 04:39:36;;;;;;;8.93;5.15;;;;;;;;;;4182307;28;20039;-60
2022/08/27 04:41:37;;;;;;;6.80;5.07;;;;;;;;;;4181820;28;20049;-61
2022/08/27 04:43:38;;;;;;;5.57;5.03;;;;;;;;;;4182038;28;20040;-60
2022/08/27 04:45:43;;;;;;;8.75;5.15;;;;;;;;;;4181865;28;20582;-60
2022/08/27 04:47:44;;;;;;;5.47;4.82;;;;;;;;;;4182715;28;20025;-60
2022/08/27 04:49:45;;;;;;;6.43;4.78;;;;;;;;;;4198659;28;20120;-60
2022/08/27 04:51:46;;;;;;;5.85;5.00;;;;;;;;;;4197781;28;20157;-60
2022/08/27 04:53:50;;;;;;;6.78;5.03;;;;;;;;;;4198551;28;20106;-60
2022/08/27 04:55:52;;;;;;;5.38;4.80;;;;;;;;;;4195949;28;20537;-60
2022/08/27 04:57:53;;;;;;;5.45;4.93;;;;;;;;;;4197996;28;20036;-60
2022/08/27 04:59:56;;;;;;;6.85;5.60;;;;;;;;;;4197956;28;20079;-61
2022/08/27 05:02:01;;;;;;;7.60;5.30;;;;;;;;;;4197445;28;20037;-60
2022/08/27 05:04:02;;;;;;;6.22;5.63;;;;;;;;;;4197614;28;20107;-60
2022/08/27 05:06:04;;;;;;;5.70;5.07;;;;;;;;;;4196877;28;20033;-60
2022/08/27 05:08:05;;;;;;;6.53;5.20;;;;;;;;;;4197507;28;20036;-60
2022/08/27 05:10:06;;;;;;;5.47;4.97;;;;;;;;;;4197483;28;20040;-61
2022/08/27 05:12:10;;;;;;;5.53;5.03;;;;;;;;;;4197967;28;20029;-60
2022/08/27 05:14:12;;;;;;;5.75;5.00;;;;;;;;;;4196156;28;20103;-61
2022/08/27 05:16:15;;;;;;;6.68;5.10;;;;;;;;;;4197902;28;20028;-61
2022/08/27 05:18:16;;;;;;;6.95;4.95;;;;;;;;;;4197100;28;20484;-60
2022/08/27 05:20:18;;;;;;;5.40;4.88;;;;;;;;;;4197603;28;20036;-60
2022/08/27 05:22:19;;;;;;;6.50;4.90;;;;;;;;;;4196437;28;20041;-60
2022/08/27 05:24:22;;;;;;;7.57;5.40;;;;;;;;;;4198319;28;20039;-61
2022/08/27 05:26:23;;;;;;;6.00;5.25;;;;;;;;;;4197594;28;20170;-60
2022/08/27 05:28:25;;;;;;;5.43;4.93;;;;;;;;;;4197705;28;20447;-60
2022/08/27 05:30:29;;;;;;;5.65;4.88;;;;;;;;;;4197268;28;20032;-61
2022/08/27 05:32:30;;;;;;;7.78;5.70;;;;;;;;;;4197499;28;20074;-61
2022/08/27 05:34:31;;;;;;;7.97;5.57;;;;;;;;;;4197666;28;20036;-61
2022/08/27 05:36:33;;;;;;;5.75;5.15;;;;;;;;;;4197509;28;20074;-61
2022/08/27 05:38:35;;;;;;;6.15;5.07;;;;;;;;;;4196684;28;20434;-61
2022/08/27 05:40:36;;;;;;;5.55;4.72;;;;;;;;;;4197554;28;20083;-61
2022/08/27 05:42:41;;;;;;;5.50;4.70;;;;;;;;;;4196416;28;20045;-61
2022/08/27 05:44:42;;;;;;;5.63;5.13;;;;;;;;;;4195907;28;20028;-61
2022/08/27 05:46:44;;;;;;;6.32;5.00;;;;;;;;;;4197531;28;20098;-61
2022/08/27 05:48:45;;;;;;;5.30;4.80;;;;;;;;;;4188212;28;20033;-61
2022/08/27 05:50:45;;;;;;;6.90;5.00;;;;;;;;;;4180227;28;20033;-61
2022/08/27 05:52:46;;;;;;;5.53;5.03;;;;;;;;;;4180899;28;20384;-62
2022/08/27 05:54:47;;;;;;;5.22;4.75;;;;;;;;;;4184532;28;20425;-61
2022/08/27 05:56:48;;;;;;;5.50;5.00;;;;;;;;;;4189454;28;20044;-60
2022/08/27 06:01:12;;;;;;;4.90;4.50;;;;;;;;;;4186231;28;21504;-60
2022/08/27 06:03:13;;;;;;;;;;;;;;;;;;4182557;28;20567;-59
2022/08/27 06:05:14;;;;;;;5.55;5.05;;;;;;;;;;4183311;28;19908;-59
2022/08/27 06:07:15;;;;;;;5.95;5.35;;;;;;;;;;4185603;28;20027;-59
2022/08/27 06:09:17;;;;;;;6.05;5.45;;;;;;;;;;4197812;28;20094;-60
2022/08/27 06:11:18;;;;;;;5.60;4.88;;;;;;;;;;4193299;28;20102;-59
2022/08/27 06:13:20;;;;;;;5.63;5.13;;;;;;;;;;4190098;28;20438;-61
2022/08/27 06:15:20;;;;;;;7.40;5.25;;;;;;;;;;4196960;28;20369;-61
2022/08/27 06:17:21;;;;;;;6.90;5.10;;;;;;;;;;4197184;28;20085;-60
2022/08/27 06:19:22;;;;;;;5.60;5.10;;;;;;;;;;4196995;28;20047;-61
2022/08/27 06:21:23;;;;;;;5.90;4.45;;;;;;;;;;4196564;28;20075;-60
2022/08/27 06:23:24;;;;;;;5.38;4.88;;;;;;;;;;4193886;28;20155;-60
2022/08/27 06:25:25;;;;;;;5.30;4.75;;;;;;;;;;4180290;28;20056;-61
2022/08/27 06:27:28;;;;;;;5.15;4.68;;;;;;;;;;4196079;28;20068;-62
2022/08/27 06:29:29;;;;;;;5.18;4.68;;;;;;;;;;4190341;28;20050;-60
2022/08/27 06:31:31;;;;;;;5.40;5.00;;;;;;;;;;4183247;28;20064;-60
2022/08/27 06:33:32;;;;;;;5.13;4.57;;;;;;;;;;4180050;28;20040;-61
2022/08/27 06:35:35;;;;;;;5.05;4.55;;;;;;;;;;4192985;28;20033;-60
2022/08/27 06:37:36;;;;;;;5.55;4.63;;;;;;;;;;4196856;28;20193;-60
2022/08/27 06:39:38;;;;;;;4.90;4.40;;;;;;;;;;4180902;28;20411;-60
2022/08/27 06:41:39;;;;;;;7.97;4.65;;;;;;;;;;4181676;28;20472;-60
2022/08/27 06:43:41;;;;;;;5.50;4.88;;;;;;;;;;4181529;28;20041;-60
2022/08/27 06:45:42;;;;;;;6.05;5.22;;;;;;;;;;4185051;28;20036;-60
2022/08/27 06:47:43;;;;;;;5.32;4.82;;;;;;;;;;4183012;28;20495;-60
2022/08/27 06:49:44;;;;;;;5.68;5.07;;;;;;;;;;4183970;28;20027;-60
2022/08/27 06:51:46;;;;;;;6.40;5.25;;;;;;;;;;4196642;28;20413;-59
2022/08/27 06:53:47;;;;;;;5.22;4.72;;;;;;;;;;4199962;28;20070;-59
2022/08/27 06:55:51;;;;;;;5.30;4.80;;;;;;;;;;4200170;28;20172;-60
2022/08/27 06:57:52;;;;;;;5.40;4.85;;;;;;;;;;4200065;28;20032;-60
2022/08/27 06:59:52;;;;;;;5.45;4.95;;;;;;;;;;4199953;28;20430;-61
2022/08/27 07:01:53;;;;;;;5.28;4.30;;;;;;;;;;4195968;28;20037;-60
2022/08/27 07:03:56;;;;;;;4.93;4.43;;;;;;;;;;4190229;28;20035;-60
2022/08/27 07:06:03;;;;;;;4.80;4.40;;;;;;;;;;4199786;28;20480;-60
2022/08/27 07:08:05;;;;;;;5.47;4.82;;;;;;;;;;4197763;28;20094;-60
2022/08/27 07:10:06;;;;;;;5.15;4.68;;;;;;;;;;4199598;28;20032;-59
2022/08/27 07:12:07;;;;;;;7.38;5.25;;;;;;;;;;4199391;28;20040;-60
2022/08/27 07:14:08;;;;;;;5.43;4.75;;;;;;;;;;4198247;28;20043;-59
2022/08/27 07:16:13;;;;;;;5.65;5.07;;;;;;;;;;4199448;28;20028;-60
2022/08/27 07:18:14;;;;;;;4.38;3.97;;;;;;;;;;4200329;28;20033;-61
2022/08/27 07:20:18;;;;;;;5.30;4.80;;;;;;;;;;4198456;28;20067;-61
2022/08/27 07:22:19;;;;;;;5.28;4.78;;;;;;;;;;4199686;28;20094;-61
2022/08/27 07:24:19;;;;;;;4.97;4.30;;;;;;;;;;4199817;28;20020;-61
2022/08/27 07:26:22;;;;;;;5.40;4.90;;;;;;;;;;4199302;28;20048;-61
2022/08/27 07:28:22;;;;;;;5.22;4.45;;;;;;;;;;4199464;28;20085;-61
2022/08/27 07:30:23;;;;;;;5.55;5.05;;;;;;;;;;4199495;28;20411;-60
2022/08/27 07:32:24;;;;;;;5.78;4.32;;;;;;;;;;4199374;28;20460;-60
2022/08/27 07:34:25;;;;;;;6.63;4.72;;;;;;;;;;4197420;28;20123;-60
2022/08/27 07:36:26;;;;;;;4.70;4.15;;;;;;;;;;4182508;28;20033;-61
2022/08/27 07:38:27;;;;;;;5.47;4.97;;;;;;;;;;4182702;28;20048;-59
2022/08/27 07:40:28;;;;;;;4.82;4.32;;;;;;;;;;4181730;28;20032;-59
2022/08/27 07:44:48;;;;;;;5.80;4.95;;;;;;;;;;4186269;28;20032;-59
2022/08/27 07:46:49;;;;;;;4.88;4.47;;;;;;;;;;4181388;28;20105;-60
2022/08/27 07:48:51;;;;;;;4.80;4.30;;;;;;;;;;4189266;28;20094;-59
2022/08/27 07:50:52;;;;;;;5.10;4.60;;;;;;;;;;4189102;28;20063;-59
2022/08/27 07:52:52;;;;;;;5.35;4.60;;;;;;;;;;4182471;28;20427;-60
2022/08/27 07:54:53;;;;;;;4.60;4.20;;;;;;;;;;4181931;28;20032;-61
2022/08/27 07:56:54;;;;;;;4.82;4.32;;;;;;;;;;4196523;28;20031;-60
2022/08/27 07:58:55;;;;;;;5.00;4.50;;;;;;;;;;4182274;28;20029;-60
2022/08/27 08:00:56;;;;;;;4.97;4.55;;;;;;;;;;4181274;28;20120;-60
2022/08/27 08:02:57;;;;;;;5.47;4.93;;;;;;;;;;4181859;28;20573;-61
2022/08/27 08:05:01;;;;;;;6.00;4.75;;;;;;;;;;4181192;28;20082;-60
2022/08/27 08:07:02;;;;;;;4.53;4.13;;;;;;;;;;4181658;28;20115;-60
2022/08/27 08:09:04;;;;;;;5.13;4.60;;;;;;;;;;4185004;28;20028;-60
2022/08/27 08:11:05;;;;;;;6.57;4.90;;;;;;;;;;4186726;28;20118;-60
2022/08/27 08:13:05;;;;;;;5.05;4.55;;;;;;;;;;4182523;28;20029;-60
2022/08/27 08:15:08;;;;;;;5.30;4.68;;;;;;;;;;4182595;28;20571;-64
2022/08/27 08:17:09;;;;;;;5.20;4.70;;;;;;;;;;4190996;28;20387;-61
2022/08/27 08:19:10;;;;;;;5.10;4.70;;;;;;;;;;4182007;28;20059;-61
2022/08/27 08:21:12;;;;;;;5.85;4.75;;;;;;;;;;4181552;28;20516;-60
2022/08/27 08:23:15;;;;;;;6.03;4.78;;;;;;;;;;4196911;28;20098;-61
2022/08/27 08:25:17;;;;;;;5.20;4.70;;;;;;;;;;4192290;28;20431;-61
2022/08/27 08:27:19;;;;;;;5.22;4.72;;;;;;;;;;4182154;28;20025;-61
2022/08/27 08:29:20;;;;;;;5.25;4.75;;;;;;;;;;4196650;28;20041;-61
2022/08/27 08:31:26;;;;;;;5.53;5.03;;;;;;;;;;4192126;28;20028;-60
2022/08/27 08:33:27;;;;;;;5.25;4.80;;;;;;;;;;4182099;28;20033;-62
2022/08/27 08:35:28;;;;;;;5.22;4.72;;;;;;;;;;4188677;28;20036;-60
2022/08/27 08:37:29;;;;;;;5.75;4.80;;;;;;;;;;4184284;28;21884;-61
2022/08/27 08:39:30;;;;;;;5.30;4.80;;;;;;;;;;4195149;28;21662;-60
2022/08/27 08:41:38;;;;;;;5.00;4.60;;;;;;;;;;4180804;28;20049;-60
2022/08/27 08:43:42;;;;;;;4.80;4.40;;;;;;;;;;4182976;28;20044;-60
2022/08/27 08:45:44;;;;;;;5.05;4.55;;;;;;;;;;4180508;28;20044;-60
2022/08/27 08:47:52;;;;;;;5.07;4.65;;;;;;;;;;4185418;28;20099;-60
2022/08/27 08:50:05;;;;;;;7.05;4.85;;;;;;;;;;4181682;28;20082;-60
2022/08/27 08:52:08;;;;;;;5.22;4.72;;;;;;;;;;4187159;28;20036;-60
2022/08/27 08:54:14;;;;;;;4.88;4.47;;;;;;;;;;4190729;28;20029;-60
2022/08/27 08:56:35;;;;;;;5.25;4.78;;;;;;;;;;4188214;28;20537;-60
2022/08/27 08:58:44;;;;;;;6.90;4.90;;;;;;;;;;4187579;28;20461;-60
2022/08/27 09:00:50;;;;;;;4.70;4.20;;;;;;;;;;4190084;28;20040;-60
2022/08/27 09:02:53;;;;;;;5.05;4.65;;;;;;;;;;4188340;28;20476;-61
2022/08/27 09:04:55;;;;;;;4.97;4.57;;;;;;;;;;4181609;28;20029;-60
2022/08/27 09:07:07;;;;;;;7.80;5.20;;;;;;;;;;4181946;28;20025;-60
2022/08/27 09:09:22;;;;;;;6.38;5.00;;;;;;;;;;4181152;28;20099;-60
2022/08/27 09:11:23;;;;;;;5.00;4.60;;;;;;;;;;4181033;28;20045;-60
2022/08/27 09:13:26;;;;;;;4.80;4.40;;;;;;;;;;4180514;28;20029;-60
2022/08/27 09:15:28;;;;;;;5.22;4.72;;;;;;;;;;4181332;28;20037;-60
2022/08/27 09:17:29;;;;;;;5.85;5.25;;;;;;;;;;4180292;28;20491;-60
2022/08/27 09:19:33;;;;;;;5.47;4.75;;;;;;;;;;4181539;28;20054;-60
2022/08/27 09:21:48;;;;;;;5.00;4.60;;;;;;;;;;4180711;28;20083;-60
2022/08/27 09:23:51;;;;;;;5.43;4.93;;;;;;;;;;4196002;28;20102;-60
2022/08/27 09:25:52;;;;;;;5.20;4.70;;;;;;;;;;4181355;28;20033;-60
2022/08/27 09:28:01;;;;;;;5.32;4.90;;;;;;;;;;4193911;28;20369;-60
2022/08/27 09:30:06;;;;;;;5.47;4.97;;;;;;;;;;4184582;28;20419;-60
2022/08/27 09:32:08;;;;;;;4.93;4.47;;;;;;;;;;4185179;28;20056;-60
2022/08/27 09:34:09;;;;;;;5.30;4.80;;;;;;;;;;4191407;28;20032;-59
2022/08/27 09:36:12;;;;;;;4.93;4.43;;;;;;;;;;4196649;28;20041;-60
2022/08/27 09:38:27;;;;;;;5.38;4.68;;;;;;;;;;4195856;28;20062;-59
2022/08/27 09:40:30;;;;;;;5.60;5.10;;;;;;;;;;4183813;28;20045;-59
2022/08/27 09:42:35;;;;;;;5.10;4.60;;;;;;;;;;4191763;28;20098;-60
2022/08/27 09:44:52;;;;;;;4.90;4.50;;;;;;;;;;4194731;28;20032;-59
2022/08/27 09:46:58;;;;;;;6.65;5.15;;;;;;;;;;4181217;28;20362;-60
2022/08/27 09:49:09;;;;;;;4.82;4.43;;;;;;;;;;4180932;28;20078;-60
2022/08/27 09:51:11;;;;;;;5.65;5.15;;;;;;;;;;4186037;28;20479;-59
2022/08/27 09:53:29;;;;;;;5.38;4.88;;;;;;;;;;4197685;28;20036;-60
2022/08/27 09:55:33;;;;;;;5.57;5.07;;;;;;;;;;4180502;28;20041;-60
2022/08/27 09:57:37;;;;;;;5.20;4.72;;;;;;;;;;4195198;28;20415;-60
2022/08/27 09:59:50;;;;;;;5.43;4.78;;;;;;;;;;4183104;28;20020;-60
2022/08/27 10:01:59;;;;;;;5.82;4.70;;;;;;;;;;4192493;28;20033;-59
2022/08/27 10:04:13;;;;;;;4.35;3.95;;;;;;;;;;4188280;28;20578;-60
2022/08/27 10:06:28;;;;;;;6.20;4.70;;;;;;;;;;4189023;28;20033;-59
2022/08/27 10:08:42;;;;;;;4.93;4.43;;;;;;;;;;4180734;28;20029;-59
2022/08/27 10:10:51;;;;;;;5.20;4.70;;;;;;;;;;4185602;28;20025;-59
2022/08/27 10:13:03;;;;;;;4.68;4.28;;;;;;;;;;4196815;28;20352;-59
2022/08/27 10:15:08;;;;;;;5.38;4.88;;;;;;;;;;4190369;28;20525;-60
2022/08/27 10:17:16;;;;;;;5.20;4.70;;;;;;;;;;4182024;28;20032;-59
2022/08/27 10:19:36;;;;;;;4.95;4.25;;;;;;;;;;4188704;28;20065;-60
2022/08/27 10:21:48;;;;;;;5.45;4.38;;;;;;;;;;4189652;28;20434;-60
2022/08/27 10:24:05;;;;;;;4.78;4.38;;;;;;;;;;4175566;28;20044;-60
2022/08/27 10:26:19;;;;;;;4.65;4.25;;;;;;;;;;4186387;28;20024;-61
2022/08/27 10:28:35;;;;;;;5.47;4.22;;;;;;;;;;4196735;28;20098;-60
2022/08/27 10:30:46;;;;;;;5.13;4.63;;;;;;;;;;4189480;28;20028;-60
2022/08/27 10:32:47;;;;;;;5.20;4.70;;;;;;;;;;4188287;28;20090;-61
2022/08/27 10:35:08;;;;;;;4.90;4.40;;;;;;;;;;4192032;28;20040;-60
2022/08/27 10:37:09;;;;;;;5.20;4.50;;;;;;;;;;4192107;28;20087;-60
2022/08/27 10:39:10;;;;;;;5.00;4.53;;;;;;;;;;4183777;28;20431;-61
2022/08/27 10:41:17;;;;;;;4.97;4.40;;;;;;;;;;4185816;28;20131;-60
2022/08/27 10:43:32;;;;;;;4.72;4.32;;;;;;;;;;4196818;28;20110;-60
2022/08/27 10:45:45;;;;;;;4.55;4.15;;;;;;;;;;4194838;28;20438;-60
2022/08/27 10:48:09;;;;;;;4.20;3.85;;;;;;;;;;4180073;28;20076;-61
2022/08/27 10:50:16;;;;;;;4.78;4.32;;;;;;;;;;4181332;28;20098;-60
2022/08/27 10:52:36;;;;;;;4.90;4.50;;;;;;;;;;4195826;28;20205;-60
2022/08/27 10:54:45;;;;;;;4.78;4.38;;;;;;;;;;4179964;28;20032;-60
2022/08/27 10:56:52;;;;;;;4.40;4.00;;;;;;;;;;4179660;28;20033;-60
2022/08/27 10:58:56;;;;;;;6.18;4.10;;;;;;;;;;4179316;28;20036;-60
2022/08/27 11:01:05;;;;;;;5.03;4.53;;;;;;;;;;4177977;28;20107;-60
2022/08/27 11:03:38;;;;;;;4.45;4.05;;;;;;;;;;4182257;28;20090;-61
2022/08/27 11:05:46;;;;;;;6.13;4.53;;;;;;;;;;4150371;28;20032;-60
2022/08/27 11:07:55;;;;;;;5.07;4.57;;;;;;;;;;4196683;28;20556;-60
2022/08/27 11:10:00;;;;;;;4.90;4.40;;;;;;;;;;4194940;28;20044;-60
2022/08/27 11:12:04;;;;;;;4.80;4.30;;;;;;;;;;4186630;28;20040;-60
2022/08/27 11:14:08;;;;;;;4.47;4.10;;;;;;;;;;4187035;28;20473;-60
2022/08/27 11:16:21;;;;;;;4.57;4.18;;;;;;;;;;4178918;28;20082;-61
2022/08/27 11:18:31;;;;;;;4.90;4.50;;;;;;;;;;4182484;28;20037;-60
2022/08/27 11:20:46;;;;;;;4.55;4.15;;;;;;;;;;4185204;28;20481;-60
2022/08/27 11:22:53;;;;;;;5.32;4.82;;;;;;;;;;4179512;28;20044;-59
2022/08/27 11:25:01;;;;;;;4.60;4.18;;;;;;;;;;4182539;28;20116;-60
2022/08/27 11:27:04;;;;;;;4.88;4.47;;;;;;;;;;4188772;28;20033;-59
2022/08/27 11:29:18;;;;;;;4.47;4.07;;;;;;;;;;4182342;28;20095;-59
2022/08/27 11:31:30;;;;;;;4.60;4.20;;;;;;;;;;4179716;28;20185;-60
2022/08/27 11:33:37;;;;;;;4.50;4.10;;;;;;;;;;4179841;28;20463;-60
2022/08/27 11:35:53;;;;;;;5.35;4.05;;;;;;;;;;4179216;28;20094;-60
2022/08/27 11:38:12;;;;;;;4.40;4.00;;;;;;;;;;4179704;28;20431;-60
2022/08/27 11:40:32;;;;;;;5.53;4.57;;;;;;;;;;4190371;28;20036;-60
2022/08/27 11:42:40;;;;;;;5.03;4.22;;;;;;;;;;4189376;28;20044;-60
2022/08/27 11:44:48;;;;;;;4.43;4.03;;;;;;;;;;4183333;28;20033;-58
2022/08/27 11:46:54;;;;;;;5.40;4.35;;;;;;;;;;4185431;28;20040;-60
2022/08/27 11:48:59;;;;;;;4.32;4.00;;;;;;;;;;4182582;28;20095;-60
2022/08/27 11:50:59;;;;;;;;;;;;;;;;;;4182878;28;20048;-60
2022/08/27 11:53:06;;;;;;;4.40;4.00;;;;;;;;;;4182628;28;19912;-60
2022/08/27 11:55:10;;;;;;;5.45;4.10;;;;;;;;;;4183656;28;20063;-60
2022/08/27 11:57:31;;;;;;;4.75;4.35;;;;;;;;;;4182237;28;20098;-60
2022/08/27 11:59:32;;;;;;;4.63;4.22;;;;;;;;;;4194597;28;20082;-60
2022/08/27 12:01:33;;;;;;;4.40;4.00;;;;;;;;;;4198707;28;20098;-60
2022/08/27 12:03:35;;;;;;;6.15;4.40;;;;;;;;;;4187602;28;20091;-60
2022/08/27 12:05:41;;;;;;;4.63;4.22;;;;;;;;;;4183075;28;20407;-60
2022/08/27 12:07:43;;;;;;;4.65;4.25;;;;;;;;;;4182889;28;20029;-61
2022/08/27 12:09:50;;;;;;;4.03;3.70;;;;;;;;;;4185994;28;20095;-60
2022/08/27 12:11:51;;;;;;;4.40;4.00;;;;;;;;;;4185779;28;20106;-60
2022/08/27 12:14:11;;;;;;;4.95;4.15;;;;;;;;;;4182839;28;20480;-60
2022/08/27 12:16:24;;;;;;;4.70;4.18;;;;;;;;;;4182649;28;20041;-59
2022/08/27 12:18:44;;;;;;;6.88;4.20;;;;;;;;;;4185448;28;20024;-60
2022/08/27 12:20:54;;;;;;;10.43;4.20;;;;;;;;;;4198607;28;20052;-58
2022/08/27 12:25:27;;;;;;;7.55;4.20;;;;;;;;;;4183699;28;20021;-60
2022/08/27 12:27:30;;;;;;;8.57;4.47;;;;;;;;;;4183068;28;20031;-60